Time;durP1;ratioP1;P1;durP2;ratioP2;P2;SDS_P1;SDS_P2;PMS_P1;PMS_P2;Temp;Humidity;BMP_temperature;BMP_pressure;BME280_temperature;BME280_humidity;BME280_pressure;Samples;Min_cycle;Max_cycle;Signal;HPM_P1;HPM_P2
2023/02/27 00:01:05;;;;;;;4.25;2.00;;;0.40;77.10;;;;;;5012746;28;20091;-59
2023/02/27 00:03:30;;;;;;;4.38;1.80;;;0.40;77.10;;;;;;5013530;28;20033;-59
2023/02/27 00:05:56;;;;;;;3.05;1.90;;;0.30;76.90;;;;;;5013369;28;20516;-59
2023/02/27 00:08:22;;;;;;;2.55;2.00;;;0.30;77.00;;;;;;5012681;28;20041;-60
2023/02/27 00:10:48;;;;;;;4.28;2.00;;;0.30;76.90;;;;;;5012500;28;20033;-57
2023/02/27 00:13:13;;;;;;;3.47;1.83;;;0.30;76.90;;;;;;5009567;28;20423;-60
2023/02/27 00:15:39;;;;;;;2.15;1.70;;;0.30;76.90;;;;;;5009139;28;20042;-58
2023/02/27 00:18:06;;;;;;;2.00;1.80;;;0.30;76.90;;;;;;5011243;28;20776;-58
2023/02/27 00:20:36;;;;;;;2.28;1.95;;;0.30;76.90;;;;;;5006845;28;20041;-58
2023/02/27 00:23:06;;;;;;;3.28;1.60;;;0.30;76.90;;;;;;5006145;28;20037;-57
2023/02/27 00:25:32;;;;;;;1.90;1.70;;;0.30;76.90;;;;;;5008158;28;20501;-59
2023/02/27 00:27:58;;;;;;;4.85;2.05;;;0.30;77.40;;;;;;5008948;28;20568;-56
2023/02/27 00:30:25;;;;;;;3.55;1.73;;;0.30;76.80;;;;;;5010489;28;20034;-59
2023/02/27 00:32:51;;;;;;;3.03;1.90;;;0.30;76.90;;;;;;5007079;28;20044;-60
2023/02/27 00:35:17;;;;;;;3.47;1.50;;;0.30;76.80;;;;;;5010283;28;20095;-59
2023/02/27 00:37:43;;;;;;;2.92;1.90;;;0.30;76.80;;;;;;5008350;28;20034;-59
2023/02/27 00:40:10;;;;;;;2.60;1.58;;;0.30;76.90;;;;;;5008979;28;20029;-58
2023/02/27 00:42:36;;;;;;;2.22;1.83;;;0.30;76.90;;;;;;5008169;28;20046;-57
2023/02/27 00:45:02;;;;;;;3.70;1.77;;;0.30;76.90;;;;;;5006374;28;20095;-58
2023/02/27 00:47:28;;;;;;;2.83;1.70;;;0.30;76.80;;;;;;5010163;28;20493;-58
2023/02/27 00:49:54;;;;;;;2.50;1.90;;;0.30;76.90;;;;;;5007027;28;20093;-61
2023/02/27 00:52:19;;;;;;;3.13;1.80;;;0.30;76.90;;;;;;5009458;28;20038;-58
2023/02/27 00:54:45;;;;;;;3.08;1.73;;;0.30;76.70;;;;;;5007659;28;20490;-58
2023/02/27 00:57:11;;;;;;;2.50;1.90;;;0.30;76.70;;;;;;5013127;28;20046;-57
2023/02/27 00:59:36;;;;;;;4.50;1.70;;;0.30;76.60;;;;;;5015542;28;20121;-56
2023/02/27 01:02:02;;;;;;;3.33;1.70;;;0.30;76.70;;;;;;5014295;28;20040;-59
2023/02/27 01:04:27;;;;;;;3.28;1.88;;;0.20;76.60;;;;;;5017014;28;20048;-58
2023/02/27 01:06:53;;;;;;;2.75;1.77;;;0.20;76.60;;;;;;5018133;28;20037;-59
2023/02/27 01:09:19;;;;;;;4.22;2.10;;;0.20;76.60;;;;;;5017344;28;20046;-59
2023/02/27 01:11:44;;;;;;;2.47;1.80;;;0.20;76.70;;;;;;5014952;28;20042;-59
2023/02/27 01:14:10;;;;;;;3.00;1.83;;;0.20;76.70;;;;;;5012635;28;20064;-59
2023/02/27 01:16:35;;;;;;;2.83;1.50;;;0.20;76.70;;;;;;5012883;28;20034;-59
2023/02/27 01:19:01;;;;;;;3.03;1.80;;;0.20;76.80;;;;;;5013727;28;20408;-59
2023/02/27 01:21:27;;;;;;;3.05;1.95;;;0.20;76.80;;;;;;5009266;28;20026;-59
2023/02/27 01:23:52;;;;;;;2.13;1.90;;;0.20;76.80;;;;;;5008844;28;20038;-59
2023/02/27 01:26:18;;;;;;;2.92;1.60;;;0.20;77.10;;;;;;5013585;28;20109;-59
2023/02/27 01:28:44;;;;;;;2.92;1.80;;;0.20;76.80;;;;;;5010387;28;20493;-59
2023/02/27 01:31:09;;;;;;;3.83;1.98;;;0.20;76.90;;;;;;5009414;28;20053;-58
2023/02/27 01:33:35;;;;;;;3.13;2.00;;;0.20;76.70;;;;;;5007328;28;20493;-60
2023/02/27 01:36:01;;;;;;;2.25;1.80;;;0.20;76.70;;;;;;5009606;28;20243;-57
2023/02/27 01:38:26;;;;;;;2.35;1.60;;;0.20;76.70;;;;;;5009946;28;20063;-60
2023/02/27 01:40:52;;;;;;;3.13;1.48;;;0.20;76.80;;;;;;5013105;28;20125;-59
2023/02/27 01:43:20;;;;;;;2.30;1.55;;;0.20;76.70;;;;;;5009655;28;20129;-59
2023/02/27 01:45:47;;;;;;;2.80;1.90;;;0.20;76.70;;;;;;5011580;28;20099;-60
2023/02/27 01:48:27;;;;;;;2.67;1.90;;;0.20;76.60;;;;;;5013416;28;20057;-59
2023/02/27 01:51:17;;;;;;;4.05;1.83;;;0.20;76.60;;;;;;5012879;28;20034;-59
2023/02/27 01:53:45;;;;;;;2.35;1.77;;;0.20;76.40;;;;;;5008716;28;20092;-59
2023/02/27 01:56:16;;;;;;;2.60;1.80;;;0.20;76.40;;;;;;5011453;28;20069;-60
2023/02/27 01:58:44;;;;;;;4.00;1.92;;;0.20;76.50;;;;;;5013547;28;20416;-57
2023/02/27 02:01:10;;;;;;;3.38;1.70;;;0.20;76.40;;;;;;5022156;28;20074;-58
2023/02/27 02:03:51;;;;;;;2.35;1.73;;;0.10;76.40;;;;;;5015933;28;20486;-58
2023/02/27 02:06:17;;;;;;;4.30;2.15;;;0.10;76.50;;;;;;5014176;28;20229;-58
2023/02/27 02:08:46;;;;;;;3.35;1.77;;;0.10;76.60;;;;;;5012932;28;20068;-60
2023/02/27 02:11:14;;;;;;;3.70;1.80;;;0.10;76.50;;;;;;5014068;28;20451;-59
2023/02/27 02:13:41;;;;;;;3.10;1.83;;;0.10;76.60;;;;;;5014489;28;20045;-57
2023/02/27 02:16:36;;;;;;;3.25;2.00;;;0.10;76.60;;;;;;5006686;28;20340;-59
2023/02/27 02:19:32;;;;;;;3.38;2.00;;;0.10;76.60;;;;;;5012052;28;20116;-59
2023/02/27 02:22:20;;;;;;;3.83;1.92;;;0.10;77.40;;;;;;5008723;28;20440;-57
2023/02/27 02:24:48;;;;;;;2.13;1.83;;;0.10;76.50;;;;;;5007092;28;20065;-59
2023/02/27 02:27:19;;;;;;;5.25;2.05;;;0.10;76.60;;;;;;5005939;28;20045;-59
2023/02/27 02:30:20;;;;;;;3.47;1.90;;;0.10;76.50;;;;;;5005145;28;20069;-58
2023/02/27 02:32:48;;;;;;;2.45;1.65;;;0.10;76.60;;;;;;5008986;28;20712;-59
2023/02/27 02:35:32;;;;;;;2.03;1.75;;;0.00;76.40;;;;;;5009385;28;20069;-57
2023/02/27 02:38:58;;;;;;;3.10;1.70;;;0.00;76.50;;;;;;5007012;28;20070;-59
2023/02/27 02:41:56;;;;;;;3.58;1.90;;;0.00;76.60;;;;;;4975892;28;20041;-59
2023/02/27 02:44:55;;;;;;;4.18;1.90;;;0.00;76.50;;;;;;5006029;28;20034;-58
2023/02/27 02:47:42;;;;;;;3.63;1.80;;;0.00;76.60;;;;;;4989695;28;20072;-58
2023/02/27 02:50:20;;;;;;;3.97;2.00;;;0.00;76.70;;;;;;5004289;28;20308;-56
2023/02/27 02:52:55;;;;;;;4.18;2.22;;;0.00;76.70;;;;;;5012041;28;20073;-58
2023/02/27 02:55:28;;;;;;;;;;;0.00;76.70;;;;;;5008080;28;20049;-57
2023/02/27 02:58:11;;;;;;;3.08;1.92;;;0.00;76.90;;;;;;5006755;28;20280;-60
2023/02/27 03:00:46;;;;;;;3.20;2.13;;;0.00;76.60;;;;;;5014022;28;20041;-59
2023/02/27 03:03:33;;;;;;;2.65;2.00;;;0.00;76.60;;;;;;5013568;28;20036;-60
2023/02/27 03:06:18;;;;;;;2.72;2.03;;;0.00;76.70;;;;;;5012978;28;20493;-59
2023/02/27 03:08:52;;;;;;;4.07;2.05;;;0.00;76.70;;;;;;5015214;28;20037;-60
2023/02/27 03:11:18;;;;;;;2.63;1.77;;;0.00;76.70;;;;;;5016744;28;20296;-59
2023/02/27 03:14:09;;;;;;;4.20;2.28;;;0.00;76.70;;;;;;5014962;28;20056;-59
2023/02/27 03:16:49;;;;;;;5.90;2.20;;;0.00;76.70;;;;;;5009727;28;20038;-60
2023/02/27 03:19:19;;;;;;;2.53;2.00;;;0.00;76.70;;;;;;5010293;28;20045;-59
2023/02/27 03:22:10;;;;;;;2.17;1.90;;;0.00;76.70;;;;;;5009693;28;20382;-58
2023/02/27 03:24:52;;;;;;;4.22;2.40;;;0.00;76.60;;;;;;5006191;28;20504;-59
2023/02/27 03:27:18;;;;;;;3.67;2.13;;;0.00;76.60;;;;;;5005646;28;20130;-60
2023/02/27 03:29:56;;;;;;;5.05;2.30;;;0.00;76.50;;;;;;5004924;28;20536;-60
2023/02/27 03:32:29;;;;;;;3.55;2.42;;;0.00;76.40;;;;;;5011749;28;20041;-58
2023/02/27 03:34:55;;;;;;;3.67;2.35;;;0.00;76.30;;;;;;4991171;28;20731;-59
2023/02/27 03:37:38;;;;;;;4.28;2.58;;;0.00;76.30;;;;;;4998345;28;20042;-60
2023/02/27 03:40:16;;;;;;;2.30;2.10;;;-0.10;76.30;;;;;;5011245;28;20038;-58
2023/02/27 03:42:52;;;;;;;3.15;2.00;;;-0.10;76.40;;;;;;5008741;28;20418;-60
2023/02/27 03:45:37;;;;;;;6.43;2.65;;;-0.10;76.30;;;;;;5005074;28;20513;-58
2023/02/27 03:48:05;;;;;;;5.25;2.58;;;-0.10;76.40;;;;;;5013753;28;20129;-59
2023/02/27 03:50:32;;;;;;;3.35;2.47;;;-0.10;76.40;;;;;;5012857;28;20097;-58
2023/02/27 03:52:58;;;;;;;4.80;2.70;;;-0.20;76.50;;;;;;5012802;28;20409;-59
2023/02/27 03:55:29;;;;;;;4.78;2.53;;;-0.20;76.60;;;;;;5012272;28;20046;-60
2023/02/27 03:57:54;;;;;;;3.55;2.10;;;-0.20;76.80;;;;;;5015068;28;20671;-55
2023/02/27 04:00:22;;;;;;;3.80;2.42;;;-0.20;76.80;;;;;;5009940;28;20628;-59
2023/02/27 04:02:50;;;;;;;4.78;2.40;;;-0.20;76.90;;;;;;5006037;28;20049;-57
2023/02/27 04:05:17;;;;;;;3.13;2.40;;;-0.20;77.00;;;;;;5011018;28;20040;-57
2023/02/27 04:08:14;;;;;;;7.47;2.67;;;-0.10;77.10;;;;;;5009830;28;20037;-55
2023/02/27 04:11:01;;;;;;;3.55;2.42;;;-0.10;77.30;;;;;;5011100;28;20030;-59
2023/02/27 04:13:57;;;;;;;3.72;2.47;;;-0.10;77.20;;;;;;5005810;28;20403;-57
2023/02/27 04:16:44;;;;;;;4.10;2.50;;;-0.10;77.30;;;;;;5010114;28;20128;-57
2023/02/27 04:19:41;;;;;;;4.13;2.70;;;-0.10;77.30;;;;;;5008517;28;20311;-58
2023/02/27 04:22:42;;;;;;;3.70;2.30;;;0.00;77.30;;;;;;5011975;28;20041;-57
2023/02/27 04:25:23;;;;;;;3.22;2.42;;;0.00;77.20;;;;;;5004514;28;20041;-59
2023/02/27 04:27:57;;;;;;;3.55;2.47;;;-0.10;77.10;;;;;;5002891;28;20337;-58
2023/02/27 04:30:23;;;;;;;;;;;-0.10;77.00;;;;;;5007866;28;20072;-56
2023/02/27 04:32:58;;;;;;;3.58;2.63;;;0.00;77.30;;;;;;5006056;28;20392;-59
2023/02/27 04:36:04;;;;;;;3.28;2.67;;;-0.10;76.90;;;;;;5010300;28;20493;-57
2023/02/27 04:38:39;;;;;;;4.45;2.63;;;-0.10;77.10;;;;;;4992497;28;20164;-59
2023/02/27 04:41:08;;;;;;;;;;;-0.10;76.90;;;;;;5009178;28;22174;-60
2023/02/27 04:43:36;;;;;;;3.35;2.53;;;-0.10;77.30;;;;;;5009877;28;19925;-59
2023/02/27 04:46:04;;;;;;;3.70;2.53;;;-0.10;76.90;;;;;;5008080;28;20049;-58
2023/02/27 04:48:40;;;;;;;3.50;2.90;;;-0.10;77.10;;;;;;5007747;28;20118;-59
2023/02/27 04:51:17;;;;;;;6.18;2.67;;;-0.20;77.10;;;;;;5012421;28;20149;-59
2023/02/27 04:53:51;;;;;;;3.72;2.80;;;-0.20;77.30;;;;;;5010281;28;20437;-58
2023/02/27 04:56:22;;;;;;;4.10;2.75;;;-0.20;77.40;;;;;;5009920;28;20038;-58
2023/02/27 04:58:53;;;;;;;4.53;3.10;;;-0.20;77.40;;;;;;5012262;28;20391;-58
2023/02/27 05:01:30;;;;;;;4.78;3.20;;;-0.10;77.40;;;;;;5016973;28;20046;-58
2023/02/27 05:03:57;;;;;;;3.50;2.85;;;-0.10;78.40;;;;;;5018884;28;20056;-59
2023/02/27 05:06:30;;;;;;;4.55;3.35;;;-0.20;77.50;;;;;;5019975;28;20060;-58
2023/02/27 05:09:05;;;;;;;4.95;2.95;;;-0.10;77.50;;;;;;5018663;28;20489;-58
2023/02/27 05:11:39;;;;;;;;;;;-0.20;77.80;;;;;;5016047;28;20477;-60
2023/02/27 05:14:19;;;;;;;4.88;2.70;;;-0.10;77.70;;;;;;5009121;28;19913;-60
2023/02/27 05:16:53;;;;;;;5.25;2.80;;;-0.20;77.30;;;;;;5005767;28;20041;-58
2023/02/27 05:19:19;;;;;;;4.15;2.70;;;-0.20;77.30;;;;;;5013125;28;20033;-59
2023/02/27 05:22:04;;;;;;;4.78;2.90;;;-0.20;77.30;;;;;;5012508;28;20143;-57
2023/02/27 05:24:30;;;;;;;;;;;-0.20;77.40;;;;;;5007935;28;20136;-59
2023/02/27 05:27:22;;;;;;;3.42;2.50;;;-0.20;77.60;;;;;;5009246;28;20315;-58
2023/02/27 05:29:49;;;;;;;4.03;2.70;;;-0.20;77.40;;;;;;5008225;28;20505;-60
2023/02/27 05:32:38;;;;;;;5.13;3.20;;;-0.20;77.30;;;;;;5009165;28;20041;-59
2023/02/27 05:35:04;;;;;;;3.67;2.97;;;-0.20;77.60;;;;;;5009899;28;20402;-58
2023/02/27 05:37:40;;;;;;;4.25;3.15;;;-0.20;77.40;;;;;;5010918;28;20041;-59
2023/02/27 05:40:09;;;;;;;6.28;2.88;;;-0.20;77.60;;;;;;5017470;28;20038;-58
2023/02/27 05:42:42;;;;;;;4.47;2.90;;;-0.20;77.50;;;;;;5013204;28;20044;-58
2023/02/27 05:45:21;;;;;;;8.07;3.20;;;-0.20;77.50;;;;;;5017007;28;20387;-58
2023/02/27 05:47:58;;;;;;;2.80;2.42;;;-0.20;77.50;;;;;;5015130;28;20156;-56
2023/02/27 05:50:30;;;;;;;3.95;2.72;;;-0.20;77.40;;;;;;5017624;28;20091;-58
2023/02/27 05:53:00;;;;;;;7.35;3.17;;;-0.20;77.40;;;;;;5015543;28;20111;-55
2023/02/27 05:55:33;;;;;;;4.88;3.25;;;-0.30;77.30;;;;;;5013541;28;20037;-58
2023/02/27 05:58:16;;;;;;;4.00;3.10;;;-0.30;77.40;;;;;;5016747;28;20053;-58
2023/02/27 06:00:57;;;;;;;3.47;2.78;;;-0.30;77.50;;;;;;5015898;28;20463;-57
2023/02/27 06:03:24;;;;;;;5.15;2.92;;;-0.30;77.50;;;;;;5015467;28;20029;-60
2023/02/27 06:05:53;;;;;;;5.13;3.22;;;-0.40;77.40;;;;;;5016231;28;20131;-59
2023/02/27 06:08:19;;;;;;;5.78;3.00;;;-0.40;77.40;;;;;;5017117;28;20057;-58
2023/02/27 06:10:45;;;;;;;3.45;2.70;;;-0.40;77.50;;;;;;5015052;28;20042;-58
2023/02/27 06:13:11;;;;;;;4.28;3.42;;;-0.40;77.60;;;;;;5014592;28;20044;-58
2023/02/27 06:15:37;;;;;;;11.65;5.97;;;-0.40;77.70;;;;;;5013366;28;20026;-57
2023/02/27 06:18:03;;;;;;;11.38;5.43;;;-0.40;77.80;;;;;;5015392;28;20591;-57
2023/02/27 06:20:28;;;;;;;7.00;4.55;;;-0.40;77.90;;;;;;5014619;28;20054;-55
2023/02/27 06:22:54;;;;;;;14.10;6.40;;;-0.40;77.80;;;;;;5014072;28;20085;-58
2023/02/27 06:25:20;;;;;;;10.57;5.88;;;-0.40;78.00;;;;;;5015348;28;20085;-55
2023/02/27 06:27:46;;;;;;;12.93;6.68;;;-0.50;78.00;;;;;;5014644;28;20097;-56
2023/02/27 06:30:13;;;;;;;10.45;5.95;;;-0.50;78.10;;;;;;5015426;28;20042;-58
2023/02/27 06:32:38;;;;;;;8.63;5.68;;;-0.50;78.00;;;;;;5013739;28;20048;-56
2023/02/27 06:35:05;;;;;;;8.48;6.13;;;-0.50;78.10;;;;;;5016387;28;20410;-57
2023/02/27 06:37:31;;;;;;;7.13;4.40;;;-0.50;78.10;;;;;;5015217;28;20706;-58
2023/02/27 06:39:57;;;;;;;6.70;4.50;;;-0.50;78.10;;;;;;5014419;28;20045;-59
2023/02/27 06:42:23;;;;;;;7.10;3.90;;;-0.40;78.30;;;;;;5011040;28;20037;-59
2023/02/27 06:44:48;;;;;;;8.27;4.18;;;-0.50;78.20;;;;;;5014586;28;20062;-59
2023/02/27 06:47:14;;;;;;;5.32;3.60;;;-0.40;78.30;;;;;;5015899;28;20161;-58
2023/02/27 06:49:40;;;;;;;5.93;3.45;;;-0.50;78.30;;;;;;5014985;28;20041;-60
2023/02/27 06:52:05;;;;;;;6.47;3.97;;;-0.50;78.30;;;;;;5011071;28;20037;-58
2023/02/27 06:54:32;;;;;;;5.20;4.10;;;-0.40;78.50;;;;;;5013386;28;20034;-59
2023/02/27 06:56:57;;;;;;;6.53;4.07;;;-0.40;78.50;;;;;;5019424;28;20514;-58
2023/02/27 06:59:23;;;;;;;6.10;3.60;;;-0.40;78.50;;;;;;5014578;28;20408;-59
2023/02/27 07:01:48;;;;;;;5.38;4.00;;;-0.40;78.60;;;;;;5015911;28;20061;-58
2023/02/27 07:04:15;;;;;;;6.43;3.97;;;-0.40;78.50;;;;;;5016318;28;20029;-61
2023/02/27 07:06:41;;;;;;;6.47;4.28;;;-0.40;78.50;;;;;;5017626;28;20056;-60
2023/02/27 07:09:06;;;;;;;7.40;3.78;;;-0.40;78.50;;;;;;5017617;28;20026;-58
2023/02/27 07:11:32;;;;;;;5.25;3.95;;;-0.40;78.50;;;;;;5018944;28;20041;-57
2023/02/27 07:13:57;;;;;;;5.38;4.03;;;-0.40;78.30;;;;;;5015419;28;20108;-59
2023/02/27 07:16:23;;;;;;;7.07;4.40;;;-0.40;78.40;;;;;;5015363;28;20332;-58
2023/02/27 07:18:49;;;;;;;6.95;4.30;;;-0.40;78.40;;;;;;5013448;28;20523;-59
2023/02/27 07:21:14;;;;;;;5.70;3.80;;;-0.30;78.50;;;;;;5012123;28;20076;-59
2023/02/27 07:23:40;;;;;;;6.95;4.80;;;-0.30;78.40;;;;;;5014185;28;20041;-59
2023/02/27 07:26:06;;;;;;;4.55;3.67;;;-0.30;78.40;;;;;;5014072;28;20076;-58
2023/02/27 07:28:32;;;;;;;4.93;3.80;;;-0.30;78.30;;;;;;5014886;28;20076;-58
2023/02/27 07:30:57;;;;;;;6.20;3.80;;;-0.30;78.30;;;;;;5012602;28;20478;-60
2023/02/27 07:33:23;;;;;;;6.35;3.85;;;-0.30;78.30;;;;;;5014026;28;20050;-58
2023/02/27 07:35:49;;;;;;;6.40;3.80;;;-0.30;78.40;;;;;;5014568;28;20041;-59
2023/02/27 07:38:14;;;;;;;5.90;3.65;;;-0.30;78.30;;;;;;5012773;28;20026;-59
2023/02/27 07:40:40;;;;;;;7.72;3.75;;;-0.30;78.30;;;;;;5013454;28;20087;-60
2023/02/27 07:43:06;;;;;;;5.88;3.72;;;-0.30;78.10;;;;;;5012833;28;20041;-59
2023/02/27 07:45:32;;;;;;;5.68;3.95;;;-0.30;78.10;;;;;;5015048;28;20040;-57
2023/02/27 07:47:57;;;;;;;5.95;4.20;;;-0.20;78.10;;;;;;5013283;28;20030;-59
2023/02/27 07:50:23;;;;;;;6.07;3.70;;;-0.20;78.10;;;;;;5015135;28;20046;-59
2023/02/27 07:52:51;;;;;;;5.82;3.88;;;-0.20;78.10;;;;;;5011685;28;20033;-59
2023/02/27 07:55:16;;;;;;;6.35;4.00;;;-0.20;78.30;;;;;;5013876;28;20052;-59
2023/02/27 07:57:44;;;;;;;5.88;3.65;;;-0.20;78.30;;;;;;5011584;28;20038;-58
2023/02/27 08:00:11;;;;;;;6.32;3.90;;;-0.20;78.30;;;;;;5014094;28;20125;-60
2023/02/27 08:02:36;;;;;;;7.00;4.20;;;-0.20;78.40;;;;;;5012173;28;20068;-59
2023/02/27 08:05:03;;;;;;;5.50;4.10;;;-0.20;78.40;;;;;;5013026;28;20034;-60
2023/02/27 08:07:28;;;;;;;5.05;4.47;;;-0.10;78.50;;;;;;5014263;28;20042;-59
2023/02/27 08:09:54;;;;;;;7.03;4.10;;;0.00;78.50;;;;;;5014159;28;20128;-59
2023/02/27 08:12:19;;;;;;;8.27;4.95;;;0.00;78.40;;;;;;5015614;28;20088;-59
2023/02/27 08:14:45;;;;;;;7.97;5.20;;;0.00;78.30;;;;;;5013443;28;20034;-60
2023/02/27 08:17:10;;;;;;;11.85;6.00;;;0.00;78.30;;;;;;5015136;28;20038;-59
2023/02/27 08:19:36;;;;;;;8.50;5.13;;;0.00;78.10;;;;;;5011913;28;20093;-59
2023/02/27 08:22:02;;;;;;;6.80;4.22;;;0.00;78.10;;;;;;5012566;28;20057;-59
2023/02/27 08:24:28;;;;;;;7.10;4.40;;;0.10;78.10;;;;;;5013679;28;20034;-59
2023/02/27 08:26:53;;;;;;;7.38;4.53;;;0.10;78.10;;;;;;5011395;28;20065;-58
2023/02/27 08:29:19;;;;;;;5.88;3.80;;;0.10;78.10;;;;;;5014176;28;20041;-59
2023/02/27 08:31:45;;;;;;;7.10;5.00;;;0.20;78.10;;;;;;5012302;28;20038;-60
2023/02/27 08:34:12;;;;;;;8.15;4.43;;;0.20;78.10;;;;;;5014293;28;20041;-58
2023/02/27 08:36:38;;;;;;;6.25;4.18;;;0.20;78.20;;;;;;5012542;28;20037;-60
2023/02/27 08:39:05;;;;;;;7.07;4.18;;;0.20;78.10;;;;;;5013062;28;20109;-60
2023/02/27 08:41:31;;;;;;;5.88;3.83;;;0.30;78.10;;;;;;5012093;28;20026;-60
2023/02/27 08:43:56;;;;;;;5.00;3.70;;;0.30;77.90;;;;;;5013570;28;20045;-58
2023/02/27 08:46:22;;;;;;;6.22;4.05;;;0.40;77.80;;;;;;5012968;28;20040;-60
2023/02/27 08:48:47;;;;;;;6.03;4.10;;;0.40;77.80;;;;;;5010061;28;20042;-59
2023/02/27 08:51:13;;;;;;;6.80;4.45;;;0.40;77.80;;;;;;5012098;28;20125;-59
2023/02/27 08:53:38;;;;;;;6.00;3.90;;;0.40;77.70;;;;;;5011507;28;20520;-58
2023/02/27 08:56:04;;;;;;;5.88;3.95;;;0.50;77.70;;;;;;5014571;28;20040;-60
2023/02/27 08:58:30;;;;;;;5.45;3.67;;;0.50;77.60;;;;;;5014748;28;20580;-60
2023/02/27 09:00:55;;;;;;;5.43;4.05;;;0.60;77.80;;;;;;5013072;28;20064;-59
2023/02/27 09:03:21;;;;;;;7.65;3.72;;;0.60;77.80;;;;;;5009182;28;20490;-59
2023/02/27 09:05:48;;;;;;;4.72;3.95;;;0.60;77.80;;;;;;5014595;28;20092;-59
2023/02/27 09:08:14;;;;;;;5.03;3.92;;;0.70;77.60;;;;;;5014673;28;20064;-59
2023/02/27 09:10:40;;;;;;;6.47;3.80;;;0.70;77.40;;;;;;5012098;28;20046;-59
2023/02/27 09:13:06;;;;;;;7.53;4.00;;;0.80;77.30;;;;;;5012524;28;20026;-59
2023/02/27 09:15:34;;;;;;;5.70;3.85;;;0.80;77.20;;;;;;5013366;28;20500;-59
2023/02/27 09:18:01;;;;;;;5.18;3.75;;;0.80;77.00;;;;;;5015102;28;20108;-59
2023/02/27 09:20:28;;;;;;;5.10;3.90;;;0.90;76.90;;;;;;5017074;28;20650;-59
2023/02/27 09:22:54;;;;;;;6.05;3.50;;;0.90;76.90;;;;;;5017349;28;20033;-58
2023/02/27 09:25:20;;;;;;;7.47;4.00;;;0.90;76.70;;;;;;5016313;28;20029;-56
2023/02/27 09:27:45;;;;;;;5.75;3.40;;;0.90;76.70;;;;;;5017538;28;20072;-58
2023/02/27 09:30:11;;;;;;;6.07;4.00;;;0.90;76.60;;;;;;5016530;28;20410;-58
2023/02/27 09:32:37;;;;;;;4.68;3.70;;;1.00;76.80;;;;;;5016555;28;20065;-59
2023/02/27 09:35:03;;;;;;;6.13;3.75;;;1.00;76.60;;;;;;5016007;28;20441;-59
2023/02/27 09:37:28;;;;;;;5.35;4.05;;;1.10;76.50;;;;;;5017604;28;20111;-57
2023/02/27 09:39:54;;;;;;;4.35;3.58;;;1.10;76.50;;;;;;5016701;28;20463;-58
2023/02/27 09:42:27;;;;;;;5.85;3.55;;;1.10;76.20;;;;;;5016127;28;20040;-55
2023/02/27 09:45:00;;;;;;;4.63;3.60;;;1.10;76.10;;;;;;5016768;28;20068;-57
2023/02/27 09:47:44;;;;;;;5.40;3.60;;;1.20;75.70;;;;;;5014665;28;20081;-58
2023/02/27 09:50:28;;;;;;;6.68;3.90;;;1.20;75.90;;;;;;5016385;28;20120;-55
2023/02/27 09:52:54;;;;;;;6.68;3.75;;;1.30;75.40;;;;;;5014541;28;20037;-58
2023/02/27 09:55:21;;;;;;;6.13;3.75;;;1.30;75.50;;;;;;5016458;28;20856;-57
2023/02/27 09:57:55;;;;;;;14.73;4.00;;;1.30;75.30;;;;;;5015131;28;20448;-59
2023/02/27 10:00:45;;;;;;;4.20;3.28;;;1.30;75.20;;;;;;5016196;28;20034;-58
2023/02/27 10:03:42;;;;;;;5.57;3.45;;;1.40;75.00;;;;;;5016475;28;20041;-58
2023/02/27 10:06:23;;;;;;;10.45;6.20;;;1.40;75.00;;;;;;5014555;28;20033;-58
2023/02/27 10:09:07;;;;;;;9.57;3.95;;;1.40;75.20;;;;;;5015864;28;20025;-58
2023/02/27 10:12:00;;;;;;;6.63;4.45;;;1.50;74.60;;;;;;5015531;28;20030;-59
2023/02/27 10:14:43;;;;;;;5.03;3.47;;;1.50;74.60;;;;;;5016820;28;20030;-59
2023/02/27 10:17:35;;;;;;;4.85;3.38;;;1.50;74.20;;;;;;5015311;28;20042;-57
2023/02/27 10:20:05;;;;;;;6.55;3.28;;;1.60;74.20;;;;;;5015371;28;20124;-59
2023/02/27 10:22:36;;;;;;;6.70;3.58;;;1.60;74.20;;;;;;5016754;28;20029;-59
2023/02/27 10:25:06;;;;;;;5.18;3.33;;;1.50;73.90;;;;;;5014755;28;20054;-57
2023/02/27 10:27:32;;;;;;;7.47;3.80;;;1.60;74.00;;;;;;5014084;28;20132;-58
2023/02/27 10:30:21;;;;;;;6.03;3.33;;;1.60;74.10;;;;;;5017150;28;20061;-60
2023/02/27 10:32:50;;;;;;;5.10;3.63;;;1.60;73.40;;;;;;5012582;28;20045;-57
2023/02/27 10:35:33;;;;;;;5.20;3.25;;;1.60;73.70;;;;;;5016711;28;20049;-58
2023/02/27 10:38:07;;;;;;;4.97;3.45;;;1.70;73.00;;;;;;5016020;28;20042;-60
2023/02/27 10:40:35;;;;;;;6.45;3.47;;;1.70;73.10;;;;;;5017248;28;20136;-59
2023/02/27 10:43:02;;;;;;;5.32;3.47;;;1.70;73.20;;;;;;5013321;28;20042;-58
2023/02/27 10:45:28;;;;;;;5.78;3.75;;;1.70;73.10;;;;;;5014838;28;20037;-59
2023/02/27 10:47:54;;;;;;;5.93;3.50;;;1.70;73.00;;;;;;5015416;28;20049;-60
2023/02/27 10:50:32;;;;;;;4.82;3.55;;;1.70;73.10;;;;;;5016530;28;20749;-60
2023/02/27 10:53:00;;;;;;;5.57;3.33;;;1.80;72.70;;;;;;5014625;28;20034;-58
2023/02/27 10:55:35;;;;;;;4.60;3.20;;;1.80;72.70;;;;;;5014278;28;20056;-59
2023/02/27 10:58:03;;;;;;;4.63;3.40;;;1.90;72.60;;;;;;5017340;28;20037;-59
2023/02/27 11:00:43;;;;;;;4.70;3.33;;;1.90;72.70;;;;;;5017736;28;20112;-60
2023/02/27 11:03:21;;;;;;;5.10;3.30;;;1.90;72.30;;;;;;5018147;28;20501;-60
2023/02/27 11:06:24;;;;;;;4.72;3.03;;;1.90;71.90;;;;;;5017125;28;20045;-58
2023/02/27 11:09:31;;;;;;;5.22;3.38;;;2.00;71.40;;;;;;5016615;28;20036;-60
2023/02/27 11:12:19;;;;;;;4.75;3.33;;;2.00;71.50;;;;;;5004105;28;20576;-59
2023/02/27 11:14:54;;;;;;;5.50;3.10;;;2.00;72.20;;;;;;5003208;28;20036;-59
2023/02/27 11:17:25;;;;;;;5.55;3.40;;;2.10;72.00;;;;;;5012810;28;20497;-59
2023/02/27 11:19:50;;;;;;;5.55;3.47;;;2.10;71.90;;;;;;5015883;28;20042;-60
2023/02/27 11:22:23;;;;;;;7.38;4.03;;;2.10;72.00;;;;;;5011578;28;20517;-59
2023/02/27 11:24:49;;;;;;;4.72;3.38;;;2.10;71.30;;;;;;5014186;28;20049;-60
2023/02/27 11:27:28;;;;;;;6.38;3.38;;;2.10;71.50;;;;;;5014126;28;20049;-60
2023/02/27 11:30:21;;;;;;;4.13;3.38;;;2.20;71.30;;;;;;5013763;28;20386;-61
2023/02/27 11:32:48;;;;;;;3.78;3.20;;;2.20;71.00;;;;;;5019095;28;20473;-62
2023/02/27 11:35:38;;;;;;;6.03;2.95;;;2.20;71.50;;;;;;5020238;28;20112;-59
2023/02/27 11:38:25;;;;;;;5.50;3.45;;;2.30;71.00;;;;;;5015061;28;20038;-61
2023/02/27 11:40:58;;;;;;;4.80;3.17;;;2.20;71.90;;;;;;5013185;28;20092;-59
2023/02/27 11:43:32;;;;;;;5.88;3.30;;;2.30;70.60;;;;;;5013127;28;20045;-59
2023/02/27 11:46:06;;;;;;;5.63;3.75;;;2.30;70.70;;;;;;5015840;28;20034;-59
2023/02/27 11:49:01;;;;;;;;;;;2.30;70.40;;;;;;5014659;28;20572;-60
2023/02/27 11:51:57;;;;;;;5.10;3.45;;;2.30;70.20;;;;;;5007600;28;19928;-60
2023/02/27 11:54:44;;;;;;;5.95;3.78;;;2.40;70.90;;;;;;5015278;28;20084;-59
2023/02/27 11:57:16;;;;;;;10.00;4.30;;;2.40;71.20;;;;;;5012801;28;20124;-58
2023/02/27 11:59:42;;;;;;;6.55;3.40;;;2.40;71.10;;;;;;5015011;28;20061;-59
2023/02/27 12:02:41;;;;;;;5.63;4.00;;;2.40;70.70;;;;;;5014059;28;20521;-58
2023/02/27 12:05:41;;;;;;;6.55;3.60;;;2.40;70.60;;;;;;5014426;28;20034;-59
2023/02/27 12:08:19;;;;;;;6.75;3.70;;;2.40;70.20;;;;;;5013611;28;20049;-59
2023/02/27 12:10:48;;;;;;;7.40;3.90;;;2.40;70.50;;;;;;5014006;28;20040;-59
2023/02/27 12:13:19;;;;;;;4.65;3.53;;;2.40;70.50;;;;;;5014760;28;20040;-59
2023/02/27 12:16:05;;;;;;;5.60;3.13;;;2.40;70.60;;;;;;5014676;28;20050;-60
2023/02/27 12:18:34;;;;;;;5.63;3.42;;;2.40;70.40;;;;;;5012561;28;20058;-59
2023/02/27 12:21:14;;;;;;;6.75;3.90;;;2.30;70.80;;;;;;5013818;28;20022;-60
2023/02/27 12:24:07;;;;;;;4.35;3.20;;;2.30;70.60;;;;;;5014774;28;20083;-60
2023/02/27 12:26:43;;;;;;;7.53;4.55;;;2.40;70.50;;;;;;5012460;28;20409;-60
2023/02/27 12:29:33;;;;;;;6.00;3.67;;;2.30;70.50;;;;;;5014688;28;20159;-59
2023/02/27 12:32:30;;;;;;;6.05;3.35;;;2.30;70.30;;;;;;5013180;28;20058;-58
2023/02/27 12:35:04;;;;;;;4.60;3.35;;;2.40;70.50;;;;;;5014071;28;20045;-59
2023/02/27 12:37:32;;;;;;;2.80;2.30;;;2.40;70.20;;;;;;5015099;28;20221;-59
2023/02/27 12:39:59;;;;;;;4.18;3.20;;;2.30;70.50;;;;;;5012614;28;20038;-58
2023/02/27 12:42:36;;;;;;;6.90;3.50;;;2.40;70.30;;;;;;5013490;28;20184;-55
2023/02/27 12:45:02;;;;;;;4.82;3.28;;;2.40;70.30;;;;;;5013109;28;20417;-59
2023/02/27 12:47:49;;;;;;;5.00;3.20;;;2.30;70.30;;;;;;5014390;28;20509;-59
2023/02/27 12:50:21;;;;;;;4.28;2.97;;;2.30;69.90;;;;;;5014540;28;20574;-60
2023/02/27 12:53:17;;;;;;;6.47;3.00;;;2.40;70.20;;;;;;5018485;28;20041;-59
2023/02/27 12:56:10;;;;;;;4.28;3.17;;;2.40;70.30;;;;;;5019534;28;20443;-58
2023/02/27 12:58:51;;;;;;;5.70;3.20;;;2.40;69.90;;;;;;5019817;28;20117;-59
2023/02/27 13:01:17;;;;;;;6.57;3.50;;;2.40;69.30;;;;;;5020046;28;20045;-60
2023/02/27 13:04:00;;;;;;;5.22;3.33;;;2.40;69.60;;;;;;5019521;28;20030;-58
2023/02/27 13:06:54;;;;;;;6.20;3.60;;;2.40;69.10;;;;;;5020112;28;20529;-59
2023/02/27 13:09:30;;;;;;;6.88;4.65;;;2.40;68.60;;;;;;5019535;28;20037;-60
2023/02/27 13:12:47;;;;;;;6.68;4.20;;;2.40;69.00;;;;;;5020032;28;20024;-57
2023/02/27 13:15:32;;;;;;;6.63;3.95;;;2.40;68.00;;;;;;4996837;28;20788;-60
2023/02/27 13:18:03;;;;;;;;;;;2.50;68.80;;;;;;4998540;28;20037;-59
2023/02/27 13:20:38;;;;;;;4.88;3.35;;;2.50;68.50;;;;;;5010625;28;19913;-59
2023/02/27 13:23:31;;;;;;;5.53;3.15;;;2.50;69.20;;;;;;5017761;28;20044;-60
2023/02/27 13:26:00;;;;;;;5.15;3.38;;;2.50;68.80;;;;;;5013491;28;20029;-59